sensor_id;sensor_type;location;lat;lon;timestamp;P1;durP1;ratioP1;P2;durP2;ratioP2
57889;SDS011;43707;50.184;18.966;2022-08-01T00:00:22;3.40;;;3.10;;
57889;SDS011;43707;50.184;18.966;2022-08-01T00:02:48;4.20;;;3.50;;
57889;SDS011;43707;50.184;18.966;2022-08-01T00:05:13;3.50;;;3.20;;
57889;SDS011;43707;50.184;18.966;2022-08-01T00:07:39;3.70;;;3.40;;
57889;SDS011;43707;50.184;18.966;2022-08-01T00:10:07;4.30;;;3.90;;
57889;SDS011;43707;50.184;18.966;2022-08-01T00:12:36;4.20;;;3.60;;
57889;SDS011;43707;50.184;18.966;2022-08-01T00:15:03;5.50;;;3.20;;
57889;SDS011;43707;50.184;18.966;2022-08-01T00:17:30;5.60;;;3.70;;
57889;SDS011;43707;50.184;18.966;2022-08-01T00:19:56;3.90;;;3.60;;
57889;SDS011;43707;50.184;18.966;2022-08-01T00:22:21;3.70;;;3.20;;
57889;SDS011;43707;50.184;18.966;2022-08-01T00:24:46;8.40;;;3.60;;
57889;SDS011;43707;50.184;18.966;2022-08-01T00:27:12;4.20;;;3.60;;
57889;SDS011;43707;50.184;18.966;2022-08-01T00:29:37;5.30;;;3.40;;
57889;SDS011;43707;50.184;18.966;2022-08-01T00:32:03;4.30;;;3.40;;
57889;SDS011;43707;50.184;18.966;2022-08-01T00:34:29;5.30;;;3.40;;
57889;SDS011;43707;50.184;18.966;2022-08-01T00:36:54;4.30;;;3.60;;
57889;SDS011;43707;50.184;18.966;2022-08-01T00:39:19;3.80;;;3.40;;
57889;SDS011;43707;50.184;18.966;2022-08-01T00:41:45;4.40;;;3.30;;
57889;SDS011;43707;50.184;18.966;2022-08-01T00:44:10;4.30;;;3.20;;
57889;SDS011;43707;50.184;18.966;2022-08-01T00:46:36;5.00;;;3.10;;
57889;SDS011;43707;50.184;18.966;2022-08-01T00:49:02;3.20;;;2.70;;
57889;SDS011;43707;50.184;18.966;2022-08-01T00:51:27;4.50;;;3.00;;
57889;SDS011;43707;50.184;18.966;2022-08-01T00:53:53;3.20;;;2.90;;
57889;SDS011;43707;50.184;18.966;2022-08-01T00:56:23;3.60;;;3.00;;
57889;SDS011;43707;50.184;18.966;2022-08-01T00:58:49;5.00;;;3.30;;
57889;SDS011;43707;50.184;18.966;2022-08-01T01:01:15;10.90;;;4.30;;
57889;SDS011;43707;50.184;18.966;2022-08-01T01:03:42;3.60;;;3.30;;
57889;SDS011;43707;50.184;18.966;2022-08-01T01:06:13;7.60;;;5.00;;
57889;SDS011;43707;50.184;18.966;2022-08-01T01:11:36;5.10;;;4.20;;
57889;SDS011;43707;50.184;18.966;2022-08-01T01:17:16;4.90;;;4.40;;
57889;SDS011;43707;50.184;18.966;2022-08-01T01:19:45;4.70;;;4.20;;
57889;SDS011;43707;50.184;18.966;2022-08-01T01:30:41;4.40;;;3.70;;
57889;SDS011;43707;50.184;18.966;2022-08-01T01:33:09;4.70;;;3.90;;
57889;SDS011;43707;50.184;18.966;2022-08-01T01:35:36;5.60;;;4.30;;
57889;SDS011;43707;50.184;18.966;2022-08-01T01:38:07;7.50;;;4.10;;
57889;SDS011;43707;50.184;18.966;2022-08-01T01:40:34;7.50;;;3.80;;
57889;SDS011;43707;50.184;18.966;2022-08-01T01:43:01;4.70;;;3.90;;
57889;SDS011;43707;50.184;18.966;2022-08-01T01:45:27;3.90;;;3.60;;
57889;SDS011;43707;50.184;18.966;2022-08-01T01:47:53;4.50;;;3.50;;
57889;SDS011;43707;50.184;18.966;2022-08-01T01:50:20;3.70;;;3.40;;
57889;SDS011;43707;50.184;18.966;2022-08-01T01:52:46;4.00;;;3.60;;
57889;SDS011;43707;50.184;18.966;2022-08-01T01:55:13;6.00;;;3.20;;
57889;SDS011;43707;50.184;18.966;2022-08-01T01:57:40;4.20;;;3.40;;
57889;SDS011;43707;50.184;18.966;2022-08-01T02:00:07;3.90;;;3.60;;
57889;SDS011;43707;50.184;18.966;2022-08-01T02:02:35;6.00;;;3.90;;
57889;SDS011;43707;50.184;18.966;2022-08-01T02:05:02;6.40;;;4.10;;
57889;SDS011;43707;50.184;18.966;2022-08-01T02:07:27;5.40;;;3.80;;
57889;SDS011;43707;50.184;18.966;2022-08-01T02:09:54;4.90;;;4.40;;
57889;SDS011;43707;50.184;18.966;2022-08-01T02:12:21;4.80;;;3.50;;
57889;SDS011;43707;50.184;18.966;2022-08-01T02:14:47;3.90;;;3.60;;
57889;SDS011;43707;50.184;18.966;2022-08-01T02:17:16;3.70;;;3.40;;
57889;SDS011;43707;50.184;18.966;2022-08-01T02:19:42;4.00;;;3.60;;
57889;SDS011;43707;50.184;18.966;2022-08-01T02:22:11;4.50;;;4.00;;
57889;SDS011;43707;50.184;18.966;2022-08-01T02:24:42;5.60;;;3.60;;
57889;SDS011;43707;50.184;18.966;2022-08-01T02:27:15;5.30;;;4.90;;
57889;SDS011;43707;50.184;18.966;2022-08-01T02:29:47;5.70;;;4.80;;
57889;SDS011;43707;50.184;18.966;2022-08-01T02:32:23;6.30;;;4.80;;
57889;SDS011;43707;50.184;18.966;2022-08-01T02:34:51;4.80;;;4.30;;
57889;SDS011;43707;50.184;18.966;2022-08-01T02:37:17;5.00;;;4.60;;
57889;SDS011;43707;50.184;18.966;2022-08-01T02:39:44;5.10;;;4.60;;
57889;SDS011;43707;50.184;18.966;2022-08-01T02:42:13;5.30;;;4.90;;
57889;SDS011;43707;50.184;18.966;2022-08-01T02:44:39;5.60;;;5.10;;
57889;SDS011;43707;50.184;18.966;2022-08-01T02:47:07;6.10;;;5.50;;
57889;SDS011;43707;50.184;18.966;2022-08-01T02:49:35;7.30;;;5.90;;
57889;SDS011;43707;50.184;18.966;2022-08-01T02:52:04;6.40;;;5.80;;
57889;SDS011;43707;50.184;18.966;2022-08-01T02:54:32;8.20;;;5.50;;
57889;SDS011;43707;50.184;18.966;2022-08-01T02:57:00;8.00;;;4.90;;
57889;SDS011;43707;50.184;18.966;2022-08-01T02:59:26;7.20;;;4.80;;
57889;SDS011;43707;50.184;18.966;2022-08-01T03:01:53;5.20;;;4.60;;
57889;SDS011;43707;50.184;18.966;2022-08-01T03:04:21;5.50;;;4.60;;
57889;SDS011;43707;50.184;18.966;2022-08-01T03:06:48;4.80;;;4.00;;
57889;SDS011;43707;50.184;18.966;2022-08-01T03:09:14;7.40;;;4.50;;
57889;SDS011;43707;50.184;18.966;2022-08-01T03:11:40;6.80;;;5.30;;
57889;SDS011;43707;50.184;18.966;2022-08-01T03:14:07;6.80;;;4.80;;
57889;SDS011;43707;50.184;18.966;2022-08-01T03:16:35;6.50;;;4.30;;
57889;SDS011;43707;50.184;18.966;2022-08-01T03:19:02;5.60;;;5.00;;
57889;SDS011;43707;50.184;18.966;2022-08-01T03:21:29;5.50;;;4.90;;
57889;SDS011;43707;50.184;18.966;2022-08-01T03:23:55;7.80;;;5.50;;
57889;SDS011;43707;50.184;18.966;2022-08-01T03:26:26;9.00;;;6.10;;
57889;SDS011;43707;50.184;18.966;2022-08-01T03:28:55;6.00;;;5.00;;
57889;SDS011;43707;50.184;18.966;2022-08-01T03:31:22;5.90;;;5.30;;
57889;SDS011;43707;50.184;18.966;2022-08-01T03:33:48;6.40;;;5.80;;
57889;SDS011;43707;50.184;18.966;2022-08-01T03:36:14;7.10;;;5.40;;
57889;SDS011;43707;50.184;18.966;2022-08-01T03:38:40;6.20;;;4.60;;
57889;SDS011;43707;50.184;18.966;2022-08-01T03:41:15;6.70;;;4.80;;
57889;SDS011;43707;50.184;18.966;2022-08-01T03:43:46;5.00;;;4.50;;
57889;SDS011;43707;50.184;18.966;2022-08-01T03:46:17;7.10;;;4.60;;
57889;SDS011;43707;50.184;18.966;2022-08-01T03:48:47;5.90;;;4.60;;
57889;SDS011;43707;50.184;18.966;2022-08-01T03:51:13;4.60;;;4.20;;
57889;SDS011;43707;50.184;18.966;2022-08-01T03:53:40;5.20;;;4.60;;
57889;SDS011;43707;50.184;18.966;2022-08-01T03:56:06;9.00;;;4.90;;
57889;SDS011;43707;50.184;18.966;2022-08-01T03:58:33;7.30;;;5.20;;
57889;SDS011;43707;50.184;18.966;2022-08-01T04:01:00;4.50;;;4.10;;
57889;SDS011;43707;50.184;18.966;2022-08-01T04:03:25;5.60;;;5.10;;
57889;SDS011;43707;50.184;18.966;2022-08-01T04:05:51;7.10;;;5.20;;
57889;SDS011;43707;50.184;18.966;2022-08-01T04:08:17;8.60;;;4.90;;
57889;SDS011;43707;50.184;18.966;2022-08-01T04:10:42;6.20;;;5.20;;
57889;SDS011;43707;50.184;18.966;2022-08-01T04:13:08;5.70;;;4.80;;
57889;SDS011;43707;50.184;18.966;2022-08-01T04:15:34;5.60;;;4.50;;
57889;SDS011;43707;50.184;18.966;2022-08-01T04:17:59;6.80;;;4.40;;
57889;SDS011;43707;50.184;18.966;2022-08-01T04:20:25;9.00;;;4.60;;
57889;SDS011;43707;50.184;18.966;2022-08-01T04:22:50;6.00;;;5.30;;
57889;SDS011;43707;50.184;18.966;2022-08-01T04:25:18;5.90;;;5.20;;
57889;SDS011;43707;50.184;18.966;2022-08-01T04:27:47;4.90;;;4.50;;
57889;SDS011;43707;50.184;18.966;2022-08-01T04:30:14;6.00;;;5.50;;
57889;SDS011;43707;50.184;18.966;2022-08-01T04:32:42;7.20;;;5.60;;
57889;SDS011;43707;50.184;18.966;2022-08-01T04:35:09;8.40;;;5.70;;
57889;SDS011;43707;50.184;18.966;2022-08-01T04:37:37;7.40;;;6.80;;
57889;SDS011;43707;50.184;18.966;2022-08-01T04:40:04;7.90;;;6.20;;
57889;SDS011;43707;50.184;18.966;2022-08-01T04:42:32;7.30;;;6.60;;
57889;SDS011;43707;50.184;18.966;2022-08-01T04:44:58;9.80;;;6.50;;
57889;SDS011;43707;50.184;18.966;2022-08-01T04:47:24;7.50;;;6.40;;
57889;SDS011;43707;50.184;18.966;2022-08-01T04:49:50;6.40;;;5.90;;
57889;SDS011;43707;50.184;18.966;2022-08-01T04:52:16;8.80;;;7.80;;
57889;SDS011;43707;50.184;18.966;2022-08-01T04:54:42;11.30;;;10.00;;
57889;SDS011;43707;50.184;18.966;2022-08-01T04:57:08;12.20;;;10.40;;
57889;SDS011;43707;50.184;18.966;2022-08-01T04:59:34;14.80;;;10.80;;
57889;SDS011;43707;50.184;18.966;2022-08-01T05:02:08;15.50;;;14.00;;
57889;SDS011;43707;50.184;18.966;2022-08-01T05:04:36;18.60;;;14.90;;
57889;SDS011;43707;50.184;18.966;2022-08-01T05:07:03;15.60;;;13.50;;
57889;SDS011;43707;50.184;18.966;2022-08-01T05:09:29;16.00;;;13.30;;
57889;SDS011;43707;50.184;18.966;2022-08-01T05:11:56;15.70;;;12.60;;
57889;SDS011;43707;50.184;18.966;2022-08-01T05:14:24;16.30;;;13.00;;
57889;SDS011;43707;50.184;18.966;2022-08-01T05:16:53;15.80;;;14.10;;
57889;SDS011;43707;50.184;18.966;2022-08-01T05:19:19;13.90;;;12.50;;
57889;SDS011;43707;50.184;18.966;2022-08-01T05:21:45;13.30;;;12.00;;
57889;SDS011;43707;50.184;18.966;2022-08-01T05:24:11;14.10;;;11.70;;
57889;SDS011;43707;50.184;18.966;2022-08-01T05:26:37;14.00;;;11.00;;
57889;SDS011;43707;50.184;18.966;2022-08-01T05:29:03;14.50;;;11.10;;
57889;SDS011;43707;50.184;18.966;2022-08-01T05:31:29;10.50;;;9.60;;
57889;SDS011;43707;50.184;18.966;2022-08-01T05:33:54;11.00;;;8.20;;
57889;SDS011;43707;50.184;18.966;2022-08-01T05:36:20;7.70;;;7.00;;
57889;SDS011;43707;50.184;18.966;2022-08-01T05:38:45;12.40;;;5.70;;
57889;SDS011;43707;50.184;18.966;2022-08-01T05:41:10;10.20;;;6.80;;
57889;SDS011;43707;50.184;18.966;2022-08-01T05:43:36;7.00;;;6.20;;
57889;SDS011;43707;50.184;18.966;2022-08-01T05:46:02;10.10;;;6.40;;
57889;SDS011;43707;50.184;18.966;2022-08-01T05:48:27;6.80;;;6.00;;
57889;SDS011;43707;50.184;18.966;2022-08-01T05:50:53;7.50;;;5.50;;
57889;SDS011;43707;50.184;18.966;2022-08-01T05:53:19;7.60;;;5.80;;
57889;SDS011;43707;50.184;18.966;2022-08-01T05:55:44;6.60;;;5.90;;
57889;SDS011;43707;50.184;18.966;2022-08-01T05:58:10;7.20;;;5.30;;
57889;SDS011;43707;50.184;18.966;2022-08-01T06:00:35;12.20;;;6.80;;
57889;SDS011;43707;50.184;18.966;2022-08-01T06:03:01;12.60;;;6.10;;
57889;SDS011;43707;50.184;18.966;2022-08-01T06:05:26;7.50;;;6.30;;
57889;SDS011;43707;50.184;18.966;2022-08-01T06:07:52;6.10;;;5.20;;
57889;SDS011;43707;50.184;18.966;2022-08-01T06:10:17;7.10;;;4.70;;
57889;SDS011;43707;50.184;18.966;2022-08-01T06:12:43;4.80;;;4.30;;
57889;SDS011;43707;50.184;18.966;2022-08-01T06:15:08;5.20;;;3.90;;
57889;SDS011;43707;50.184;18.966;2022-08-01T06:17:34;4.00;;;3.40;;
57889;SDS011;43707;50.184;18.966;2022-08-01T06:20:00;6.30;;;3.60;;
57889;SDS011;43707;50.184;18.966;2022-08-01T06:22:25;4.10;;;3.40;;
57889;SDS011;43707;50.184;18.966;2022-08-01T06:24:51;6.00;;;3.30;;
57889;SDS011;43707;50.184;18.966;2022-08-01T06:27:16;3.70;;;3.40;;
57889;SDS011;43707;50.184;18.966;2022-08-01T06:29:41;3.70;;;3.40;;
57889;SDS011;43707;50.184;18.966;2022-08-01T06:32:08;5.00;;;3.20;;
57889;SDS011;43707;50.184;18.966;2022-08-01T06:34:34;4.00;;;3.20;;
57889;SDS011;43707;50.184;18.966;2022-08-01T06:37:00;4.10;;;2.90;;
57889;SDS011;43707;50.184;18.966;2022-08-01T06:39:26;3.90;;;3.20;;
57889;SDS011;43707;50.184;18.966;2022-08-01T06:41:51;6.70;;;2.60;;
57889;SDS011;43707;50.184;18.966;2022-08-01T06:44:17;4.50;;;2.60;;
57889;SDS011;43707;50.184;18.966;2022-08-01T06:46:42;2.40;;;2.20;;
57889;SDS011;43707;50.184;18.966;2022-08-01T06:49:08;3.00;;;2.10;;
57889;SDS011;43707;50.184;18.966;2022-08-01T06:51:33;6.60;;;2.30;;
57889;SDS011;43707;50.184;18.966;2022-08-01T06:53:59;3.10;;;2.10;;
57889;SDS011;43707;50.184;18.966;2022-08-01T06:56:24;4.20;;;2.30;;
57889;SDS011;43707;50.184;18.966;2022-08-01T06:58:50;2.50;;;2.30;;
57889;SDS011;43707;50.184;18.966;2022-08-01T07:01:15;5.10;;;2.50;;
57889;SDS011;43707;50.184;18.966;2022-08-01T07:03:41;3.20;;;2.30;;
57889;SDS011;43707;50.184;18.966;2022-08-01T07:06:06;4.00;;;2.00;;
57889;SDS011;43707;50.184;18.966;2022-08-01T07:08:32;4.40;;;2.60;;
57889;SDS011;43707;50.184;18.966;2022-08-01T07:10:57;2.10;;;2.00;;
57889;SDS011;43707;50.184;18.966;2022-08-01T07:13:27;2.90;;;2.60;;
57889;SDS011;43707;50.184;18.966;2022-08-01T07:15:53;4.60;;;2.10;;
57889;SDS011;43707;50.184;18.966;2022-08-01T07:18:18;4.10;;;2.00;;
57889;SDS011;43707;50.184;18.966;2022-08-01T07:20:44;4.20;;;1.40;;
57889;SDS011;43707;50.184;18.966;2022-08-01T07:23:14;2.20;;;2.00;;
57889;SDS011;43707;50.184;18.966;2022-08-01T07:25:40;3.80;;;1.90;;
57889;SDS011;43707;50.184;18.966;2022-08-01T07:28:05;2.40;;;2.00;;
57889;SDS011;43707;50.184;18.966;2022-08-01T07:30:31;2.60;;;2.00;;
57889;SDS011;43707;50.184;18.966;2022-08-01T07:32:56;3.60;;;2.50;;
57889;SDS011;43707;50.184;18.966;2022-08-01T07:35:22;5.10;;;1.80;;
57889;SDS011;43707;50.184;18.966;2022-08-01T07:37:47;2.80;;;1.90;;
57889;SDS011;43707;50.184;18.966;2022-08-01T07:40:13;4.70;;;1.90;;
57889;SDS011;43707;50.184;18.966;2022-08-01T07:42:38;4.70;;;1.90;;
57889;SDS011;43707;50.184;18.966;2022-08-01T07:45:04;2.20;;;1.70;;
57889;SDS011;43707;50.184;18.966;2022-08-01T07:47:29;4.70;;;1.90;;
57889;SDS011;43707;50.184;18.966;2022-08-01T07:50:02;2.10;;;1.60;;
57889;SDS011;43707;50.184;18.966;2022-08-01T07:52:28;5.80;;;2.10;;
57889;SDS011;43707;50.184;18.966;2022-08-01T07:54:55;3.40;;;2.10;;
57889;SDS011;43707;50.184;18.966;2022-08-01T07:57:21;2.00;;;1.80;;
57889;SDS011;43707;50.184;18.966;2022-08-01T07:59:48;2.70;;;1.70;;
57889;SDS011;43707;50.184;18.966;2022-08-01T08:02:14;4.10;;;2.20;;
57889;SDS011;43707;50.184;18.966;2022-08-01T08:04:39;2.00;;;1.80;;
57889;SDS011;43707;50.184;18.966;2022-08-01T08:07:05;4.30;;;1.60;;
57889;SDS011;43707;50.184;18.966;2022-08-01T08:09:32;2.30;;;1.50;;
57889;SDS011;43707;50.184;18.966;2022-08-01T08:11:57;9.60;;;2.30;;
57889;SDS011;43707;50.184;18.966;2022-08-01T08:14:23;2.00;;;1.30;;
57889;SDS011;43707;50.184;18.966;2022-08-01T08:16:49;3.30;;;1.60;;
57889;SDS011;43707;50.184;18.966;2022-08-01T08:19:14;2.80;;;1.50;;
57889;SDS011;43707;50.184;18.966;2022-08-01T08:21:40;2.30;;;1.60;;
57889;SDS011;43707;50.184;18.966;2022-08-01T08:24:06;2.90;;;1.50;;
57889;SDS011;43707;50.184;18.966;2022-08-01T08:26:49;4.60;;;1.80;;
57889;SDS011;43707;50.184;18.966;2022-08-01T08:29:18;2.90;;;1.60;;
57889;SDS011;43707;50.184;18.966;2022-08-01T08:31:44;2.50;;;1.60;;
57889;SDS011;43707;50.184;18.966;2022-08-01T08:34:10;2.10;;;1.50;;
57889;SDS011;43707;50.184;18.966;2022-08-01T08:36:36;2.30;;;1.50;;
57889;SDS011;43707;50.184;18.966;2022-08-01T08:39:02;4.50;;;1.60;;
57889;SDS011;43707;50.184;18.966;2022-08-01T08:41:34;4.10;;;1.90;;
57889;SDS011;43707;50.184;18.966;2022-08-01T08:44:04;2.20;;;2.00;;
57889;SDS011;43707;50.184;18.966;2022-08-01T08:46:31;3.50;;;2.20;;
57889;SDS011;43707;50.184;18.966;2022-08-01T08:49:01;3.20;;;1.90;;
57889;SDS011;43707;50.184;18.966;2022-08-01T08:51:30;5.40;;;1.70;;
57889;SDS011;43707;50.184;18.966;2022-08-01T08:53:57;7.10;;;2.00;;
57889;SDS011;43707;50.184;18.966;2022-08-01T08:56:26;4.30;;;1.80;;
57889;SDS011;43707;50.184;18.966;2022-08-01T08:58:54;2.30;;;2.10;;
57889;SDS011;43707;50.184;18.966;2022-08-01T09:01:20;3.20;;;2.30;;
57889;SDS011;43707;50.184;18.966;2022-08-01T09:03:46;7.80;;;2.10;;
57889;SDS011;43707;50.184;18.966;2022-08-01T09:06:12;3.40;;;1.80;;
57889;SDS011;43707;50.184;18.966;2022-08-01T09:08:39;2.60;;;2.10;;
57889;SDS011;43707;50.184;18.966;2022-08-01T09:11:05;5.20;;;2.50;;
57889;SDS011;43707;50.184;18.966;2022-08-01T09:13:30;3.30;;;2.30;;
57889;SDS011;43707;50.184;18.966;2022-08-01T09:15:56;4.90;;;2.50;;
57889;SDS011;43707;50.184;18.966;2022-08-01T09:21:18;3.10;;;2.20;;
57889;SDS011;43707;50.184;18.966;2022-08-01T09:26:14;3.80;;;2.50;;
57889;SDS011;43707;50.184;18.966;2022-08-01T09:28:41;3.80;;;2.20;;
57889;SDS011;43707;50.184;18.966;2022-08-01T09:31:08;4.90;;;3.10;;
57889;SDS011;43707;50.184;18.966;2022-08-01T09:33:47;4.50;;;2.80;;
57889;SDS011;43707;50.184;18.966;2022-08-01T09:36:13;5.70;;;3.70;;
57889;SDS011;43707;50.184;18.966;2022-08-01T09:38:38;4.30;;;3.90;;
57889;SDS011;43707;50.184;18.966;2022-08-01T09:41:04;6.60;;;3.80;;
57889;SDS011;43707;50.184;18.966;2022-08-01T09:43:29;6.00;;;3.80;;
57889;SDS011;43707;50.184;18.966;2022-08-01T09:45:56;6.20;;;3.70;;
57889;SDS011;43707;50.184;18.966;2022-08-01T09:48:22;7.90;;;3.10;;
57889;SDS011;43707;50.184;18.966;2022-08-01T09:50:49;5.50;;;2.90;;
57889;SDS011;43707;50.184;18.966;2022-08-01T09:53:16;4.70;;;2.70;;
57889;SDS011;43707;50.184;18.966;2022-08-01T09:55:42;3.30;;;2.30;;
57889;SDS011;43707;50.184;18.966;2022-08-01T09:58:09;3.90;;;3.30;;
57889;SDS011;43707;50.184;18.966;2022-08-01T10:00:37;5.10;;;2.80;;
57889;SDS011;43707;50.184;18.966;2022-08-01T10:03:19;2.90;;;2.70;;
57889;SDS011;43707;50.184;18.966;2022-08-01T10:05:46;4.50;;;2.90;;
57889;SDS011;43707;50.184;18.966;2022-08-01T10:08:12;3.30;;;3.00;;
57889;SDS011;43707;50.184;18.966;2022-08-01T10:10:39;4.60;;;2.50;;
57889;SDS011;43707;50.184;18.966;2022-08-01T10:13:05;6.40;;;3.60;;
57889;SDS011;43707;50.184;18.966;2022-08-01T10:15:31;6.30;;;3.70;;
57889;SDS011;43707;50.184;18.966;2022-08-01T10:17:58;3.70;;;3.30;;
57889;SDS011;43707;50.184;18.966;2022-08-01T10:20:26;7.60;;;2.80;;
57889;SDS011;43707;50.184;18.966;2022-08-01T10:22:53;3.20;;;2.80;;
57889;SDS011;43707;50.184;18.966;2022-08-01T10:25:20;4.50;;;3.20;;
57889;SDS011;43707;50.184;18.966;2022-08-01T10:27:50;2.00;;;1.80;;
57889;SDS011;43707;50.184;18.966;2022-08-01T10:30:20;3.10;;;2.80;;
57889;SDS011;43707;50.184;18.966;2022-08-01T10:32:46;3.70;;;2.80;;
57889;SDS011;43707;50.184;18.966;2022-08-01T10:35:12;5.00;;;2.50;;
57889;SDS011;43707;50.184;18.966;2022-08-01T10:37:42;3.50;;;2.50;;
57889;SDS011;43707;50.184;18.966;2022-08-01T10:40:14;4.60;;;3.80;;
57889;SDS011;43707;50.184;18.966;2022-08-01T10:42:43;3.20;;;2.90;;
57889;SDS011;43707;50.184;18.966;2022-08-01T10:45:12;3.50;;;2.40;;
57889;SDS011;43707;50.184;18.966;2022-08-01T10:47:53;3.80;;;2.70;;
57889;SDS011;43707;50.184;18.966;2022-08-01T10:50:42;3.10;;;2.80;;
57889;SDS011;43707;50.184;18.966;2022-08-01T10:53:19;2.80;;;2.60;;
57889;SDS011;43707;50.184;18.966;2022-08-01T11:04:04;3.70;;;2.50;;
57889;SDS011;43707;50.184;18.966;2022-08-01T11:09:23;3.50;;;3.10;;
57889;SDS011;43707;50.184;18.966;2022-08-01T11:11:57;3.00;;;2.80;;
57889;SDS011;43707;50.184;18.966;2022-08-01T11:14:23;5.40;;;2.90;;
57889;SDS011;43707;50.184;18.966;2022-08-01T11:16:49;3.90;;;2.50;;
57889;SDS011;43707;50.184;18.966;2022-08-01T11:19:15;3.40;;;3.10;;
57889;SDS011;43707;50.184;18.966;2022-08-01T11:30:28;3.40;;;3.10;;
57889;SDS011;43707;50.184;18.966;2022-08-01T11:32:45;4.00;;;3.60;;
57889;SDS011;43707;50.184;18.966;2022-08-01T11:35:17;3.80;;;3.50;;
57889;SDS011;43707;50.184;18.966;2022-08-01T11:37:46;4.80;;;3.20;;
57889;SDS011;43707;50.184;18.966;2022-08-01T11:42:46;4.80;;;3.60;;
57889;SDS011;43707;50.184;18.966;2022-08-01T11:45:12;4.10;;;3.60;;
57889;SDS011;43707;50.184;18.966;2022-08-01T11:47:45;7.00;;;4.30;;
57889;SDS011;43707;50.184;18.966;2022-08-01T11:50:33;7.50;;;4.50;;
57889;SDS011;43707;50.184;18.966;2022-08-01T11:53:01;4.10;;;3.70;;
57889;SDS011;43707;50.184;18.966;2022-08-01T11:55:28;5.60;;;3.70;;
57889;SDS011;43707;50.184;18.966;2022-08-01T11:58:04;4.10;;;3.80;;
57889;SDS011;43707;50.184;18.966;2022-08-01T12:00:31;4.30;;;3.60;;
57889;SDS011;43707;50.184;18.966;2022-08-01T12:03:01;3.80;;;3.40;;
57889;SDS011;43707;50.184;18.966;2022-08-01T12:05:28;3.90;;;3.40;;
57889;SDS011;43707;50.184;18.966;2022-08-01T12:07:54;5.70;;;3.30;;
57889;SDS011;43707;50.184;18.966;2022-08-01T12:10:22;5.20;;;3.60;;
57889;SDS011;43707;50.184;18.966;2022-08-01T12:12:53;3.80;;;3.30;;
57889;SDS011;43707;50.184;18.966;2022-08-01T12:15:21;4.00;;;3.40;;
57889;SDS011;43707;50.184;18.966;2022-08-01T12:17:58;3.70;;;3.20;;
57889;SDS011;43707;50.184;18.966;2022-08-01T12:20:29;3.30;;;3.00;;
57889;SDS011;43707;50.184;18.966;2022-08-01T12:22:56;4.90;;;3.10;;
57889;SDS011;43707;50.184;18.966;2022-08-01T12:25:23;3.20;;;2.90;;
57889;SDS011;43707;50.184;18.966;2022-08-01T12:27:49;3.00;;;2.60;;
57889;SDS011;43707;50.184;18.966;2022-08-01T12:30:19;6.20;;;3.10;;
57889;SDS011;43707;50.184;18.966;2022-08-01T12:32:50;4.40;;;2.60;;
57889;SDS011;43707;50.184;18.966;2022-08-01T12:35:18;3.10;;;2.20;;
57889;SDS011;43707;50.184;18.966;2022-08-01T12:37:49;2.50;;;2.30;;
57889;SDS011;43707;50.184;18.966;2022-08-01T12:40:26;3.40;;;2.40;;
57889;SDS011;43707;50.184;18.966;2022-08-01T12:43:00;7.40;;;4.30;;
57889;SDS011;43707;50.184;18.966;2022-08-01T12:45:38;6.00;;;4.00;;
57889;SDS011;43707;50.184;18.966;2022-08-01T12:48:12;2.10;;;1.90;;
57889;SDS011;43707;50.184;18.966;2022-08-01T12:50:41;2.30;;;2.10;;
57889;SDS011;43707;50.184;18.966;2022-08-01T12:53:08;3.10;;;2.20;;
57889;SDS011;43707;50.184;18.966;2022-08-01T12:55:43;2.30;;;2.00;;
57889;SDS011;43707;50.184;18.966;2022-08-01T12:58:14;2.90;;;2.00;;
57889;SDS011;43707;50.184;18.966;2022-08-01T13:00:42;3.40;;;2.00;;
57889;SDS011;43707;50.184;18.966;2022-08-01T13:05:43;2.20;;;1.90;;
57889;SDS011;43707;50.184;18.966;2022-08-01T13:13:49;3.40;;;2.40;;
57889;SDS011;43707;50.184;18.966;2022-08-01T13:16:16;3.40;;;2.50;;
57889;SDS011;43707;50.184;18.966;2022-08-01T13:18:49;2.70;;;2.40;;
57889;SDS011;43707;50.184;18.966;2022-08-01T13:21:17;5.00;;;2.80;;
57889;SDS011;43707;50.184;18.966;2022-08-01T13:24:06;2.30;;;2.00;;
57889;SDS011;43707;50.184;18.966;2022-08-01T13:29:20;3.20;;;2.20;;
57889;SDS011;43707;50.184;18.966;2022-08-01T13:31:48;3.00;;;2.40;;
57889;SDS011;43707;50.184;18.966;2022-08-01T13:34:14;5.30;;;2.30;;
57889;SDS011;43707;50.184;18.966;2022-08-01T13:36:40;4.40;;;2.50;;
57889;SDS011;43707;50.184;18.966;2022-08-01T13:39:06;3.30;;;2.60;;
57889;SDS011;43707;50.184;18.966;2022-08-01T13:41:57;2.40;;;2.10;;
57889;SDS011;43707;50.184;18.966;2022-08-01T13:44:23;3.60;;;2.30;;
57889;SDS011;43707;50.184;18.966;2022-08-01T13:46:48;3.70;;;3.10;;
57889;SDS011;43707;50.184;18.966;2022-08-01T13:49:14;3.20;;;2.50;;
57889;SDS011;43707;50.184;18.966;2022-08-01T13:51:40;2.50;;;2.30;;
57889;SDS011;43707;50.184;18.966;2022-08-01T13:54:05;2.40;;;2.20;;
57889;SDS011;43707;50.184;18.966;2022-08-01T13:56:33;3.00;;;2.60;;
57889;SDS011;43707;50.184;18.966;2022-08-01T13:59:05;5.10;;;2.90;;
57889;SDS011;43707;50.184;18.966;2022-08-01T14:01:34;3.00;;;2.70;;
57889;SDS011;43707;50.184;18.966;2022-08-01T14:04:00;5.90;;;2.70;;
57889;SDS011;43707;50.184;18.966;2022-08-01T14:06:26;5.90;;;2.90;;
57889;SDS011;43707;50.184;18.966;2022-08-01T14:08:53;4.20;;;3.00;;
57889;SDS011;43707;50.184;18.966;2022-08-01T14:11:18;3.10;;;2.80;;
57889;SDS011;43707;50.184;18.966;2022-08-01T14:13:44;4.10;;;3.00;;
57889;SDS011;43707;50.184;18.966;2022-08-01T14:16:11;4.70;;;3.80;;
57889;SDS011;43707;50.184;18.966;2022-08-01T14:18:43;3.90;;;3.10;;
57889;SDS011;43707;50.184;18.966;2022-08-01T14:21:09;4.80;;;3.10;;
57889;SDS011;43707;50.184;18.966;2022-08-01T14:23:34;3.60;;;3.30;;
57889;SDS011;43707;50.184;18.966;2022-08-01T14:26:00;5.30;;;3.30;;
57889;SDS011;43707;50.184;18.966;2022-08-01T14:28:25;5.10;;;2.80;;
57889;SDS011;43707;50.184;18.966;2022-08-01T14:30:53;4.60;;;3.10;;
57889;SDS011;43707;50.184;18.966;2022-08-01T14:33:20;4.40;;;3.40;;
57889;SDS011;43707;50.184;18.966;2022-08-01T14:35:46;3.60;;;2.80;;
57889;SDS011;43707;50.184;18.966;2022-08-01T14:38:12;5.40;;;3.20;;
57889;SDS011;43707;50.184;18.966;2022-08-01T14:40:37;3.30;;;3.00;;
57889;SDS011;43707;50.184;18.966;2022-08-01T14:43:03;3.60;;;3.10;;
57889;SDS011;43707;50.184;18.966;2022-08-01T14:45:28;4.80;;;2.80;;
57889;SDS011;43707;50.184;18.966;2022-08-01T14:47:54;7.70;;;2.80;;
57889;SDS011;43707;50.184;18.966;2022-08-01T14:50:19;2.70;;;2.20;;
57889;SDS011;43707;50.184;18.966;2022-08-01T14:52:45;3.30;;;3.00;;
57889;SDS011;43707;50.184;18.966;2022-08-01T14:55:11;3.40;;;3.10;;
57889;SDS011;43707;50.184;18.966;2022-08-01T14:57:37;3.10;;;2.90;;
57889;SDS011;43707;50.184;18.966;2022-08-01T15:00:04;4.50;;;3.40;;
57889;SDS011;43707;50.184;18.966;2022-08-01T15:02:32;4.00;;;2.90;;
57889;SDS011;43707;50.184;18.966;2022-08-01T15:04:57;4.30;;;2.60;;
57889;SDS011;43707;50.184;18.966;2022-08-01T15:07:23;3.70;;;3.20;;
57889;SDS011;43707;50.184;18.966;2022-08-01T15:09:48;3.30;;;3.00;;
57889;SDS011;43707;50.184;18.966;2022-08-01T15:12:14;3.50;;;2.70;;
57889;SDS011;43707;50.184;18.966;2022-08-01T15:14:39;5.30;;;3.50;;
57889;SDS011;43707;50.184;18.966;2022-08-01T15:19:39;3.80;;;3.50;;
57889;SDS011;43707;50.184;18.966;2022-08-01T15:22:05;6.90;;;3.80;;
57889;SDS011;43707;50.184;18.966;2022-08-01T15:24:31;4.70;;;3.70;;
57889;SDS011;43707;50.184;18.966;2022-08-01T15:26:56;3.80;;;3.50;;
57889;SDS011;43707;50.184;18.966;2022-08-01T15:29:22;3.70;;;3.30;;